Terminal Aerodrome Forecast
Issued by NWS

Home | Current Version | Previous Version | Text Only | Print | Product List | Glossary On
Versions: 1 2 3 4 5 6 7 8 9 10 11 12 13 14 15 16 17 18 19 20 21 22 23 24 25 26 27 28 29 30 31 32 33 34 35 36 37 38
000
FTUS43 KGRB 291700
TAFRHI
TAF
KRHI 291726Z 2918/3018 03008G14KT P6SM BKN010 OVC020
      TEMPO 2918/2922 SCT010 BKN020
     FM300000 01006KT P6SM BKN015
     FM300800 02006KT P6SM BKN010
     FM301400 07006KT P6SM SCT018=

USA.gov is the U.S. government's official web portal to all federal, state and local government web resources and services.